Time;durP1;ratioP1;P1;durP2;ratioP2;P2;SDS_P1;SDS_P2;PMS_P1;PMS_P2;Temp;Humidity;BMP_temperature;BMP_pressure;BME280_temperature;BME280_humidity;BME280_pressure;Samples;Min_cycle;Max_cycle;Signal;HPM_P1;HPM_P2
2023/12/18 00:01:59;;;;;;;15.80;8.32;;;;;;;6.91;100.00;103197.56;4764509;30;20200;-65
2023/12/18 00:04:47;;;;;;;16.65;7.82;;;;;;;6.91;100.00;103200.28;4791086;29;20055;-66
2023/12/18 00:07:35;;;;;;;18.17;7.80;;;;;;;6.89;100.00;103191.50;4788676;30;20058;-63
2023/12/18 00:10:23;;;;;;;13.77;7.35;;;;;;;6.90;100.00;103196.69;4806382;30;20074;-64
2023/12/18 00:13:11;;;;;;;13.02;6.85;;;;;;;6.92;100.00;103189.22;4794516;30;20111;-67
2023/12/18 00:15:59;;;;;;;12.07;6.55;;;;;;;6.94;100.00;103183.63;4768108;30;20516;-67
2023/12/18 00:18:47;;;;;;;14.80;7.47;;;;;;;6.95;100.00;103190.72;4802965;29;20055;-62
2023/12/18 00:21:35;;;;;;;15.32;8.25;;;;;;;6.97;100.00;103188.69;4805161;30;20047;-65
2023/12/18 00:24:23;;;;;;;14.10;7.45;;;;;;;6.97;100.00;103175.13;4794601;29;20454;-67
2023/12/18 00:27:11;;;;;;;15.38;7.85;;;;;;;6.98;100.00;103179.53;4788137;30;20063;-68
2023/12/18 00:29:59;;;;;;;17.60;7.85;;;;;;;6.95;100.00;103171.75;4789441;30;20070;-67
2023/12/18 00:32:47;;;;;;;15.07;7.60;;;;;;;6.95;100.00;103179.88;4773687;30;20416;-67
2023/12/18 00:35:35;;;;;;;15.32;7.50;;;;;;;6.97;100.00;103177.84;4788496;29;20051;-68
2023/12/18 00:38:23;;;;;;;14.63;7.32;;;;;;;6.98;100.00;103171.41;4788856;30;20519;-68
2023/12/18 00:41:11;;;;;;;12.82;6.40;;;;;;;6.99;100.00;103164.94;4789454;29;20074;-67
2023/12/18 00:43:59;;;;;;;14.15;7.28;;;;;;;7.02;100.00;103164.56;4775114;30;20434;-68
2023/12/18 00:46:47;;;;;;;14.88;7.38;;;;;;;7.00;100.00;103159.34;4774702;30;20055;-68
2023/12/18 00:49:35;;;;;;;18.20;7.65;;;;;;;6.99;100.00;103154.09;4771856;30;20227;-67
2023/12/18 00:52:23;;;;;;;15.57;8.00;;;;;;;6.99;100.00;103151.41;4775768;30;20047;-67
2023/12/18 00:55:11;;;;;;;12.68;6.97;;;;;;;6.99;100.00;103151.41;4764446;29;20058;-66
2023/12/18 00:57:59;;;;;;;20.30;8.52;;;;;;;6.99;100.00;103157.66;4787348;29;20402;-67
2023/12/18 01:00:47;;;;;;;16.65;8.45;;;;;;;6.96;100.00;103162.63;4769911;30;20048;-67
2023/12/18 01:03:37;;;;;;;14.82;7.75;;;;;;;6.94;100.00;103146.53;4769473;30;20051;-67
2023/12/18 01:06:25;;;;;;;14.73;7.70;;;;;;;6.93;100.00;103153.00;4777458;30;20063;-67
2023/12/18 01:09:14;;;;;;;12.93;7.05;;;;;;;6.92;100.00;103147.75;4788560;30;20537;-67
2023/12/18 01:12:02;;;;;;;15.70;7.82;;;;;;;6.90;100.00;103147.09;4764293;30;20058;-66
2023/12/18 01:14:50;;;;;;;16.13;7.97;;;;;;;6.91;100.00;103152.34;4788810;30;20126;-67
2023/12/18 01:17:38;;;;;;;14.27;7.63;;;;;;;6.90;100.00;103163.34;4788120;30;20108;-66
2023/12/18 01:20:26;;;;;;;13.82;7.30;;;;;;;6.87;100.00;103152.88;4791009;30;20489;-68
2023/12/18 01:23:14;;;;;;;16.10;7.63;;;;;;;6.82;100.00;103156.97;4773646;30;20394;-66
2023/12/18 01:26:02;;;;;;;17.83;7.95;;;;;;;6.86;100.00;103151.22;4760949;30;20184;-66
2023/12/18 01:28:50;;;;;;;16.90;6.97;;;;;;;6.85;100.00;103144.94;4778159;30;20051;-67
2023/12/18 01:31:38;;;;;;;15.90;8.30;;;;;;;6.88;100.00;103143.72;4783298;29;20051;-69
2023/12/18 01:34:26;;;;;;;13.63;6.93;;;;;;;6.88;100.00;103144.59;4777435;30;20210;-68
2023/12/18 01:37:14;;;;;;;15.77;7.82;;;;;;;6.90;100.00;103150.63;4773890;30;20043;-67
2023/12/18 01:40:03;;;;;;;16.00;8.23;;;;;;;6.89;100.00;103159.81;4788394;30;20416;-67
2023/12/18 01:42:51;;;;;;;15.20;7.90;;;;;;;6.90;100.00;103153.34;4773910;30;20073;-68
2023/12/18 01:45:39;;;;;;;13.48;7.47;;;;;;;6.87;100.00;103147.47;4775816;30;20060;-69
2023/12/18 01:48:28;;;;;;;17.17;8.65;;;;;;;6.87;100.00;103150.19;4775601;30;20062;-69
2023/12/18 01:51:16;;;;;;;15.05;8.45;;;;;;;6.88;100.00;103155.44;4775274;30;20067;-70
2023/12/18 01:54:06;;;;;;;16.33;8.07;;;;;;;6.89;100.00;103157.09;4762854;30;20059;-68
2023/12/18 01:56:55;;;;;;;17.27;8.10;;;;;;;6.91;100.00;103148.78;4788387;29;20050;-68
2023/12/18 01:59:47;;;;;;;17.20;7.93;;;;;;;6.92;100.00;103142.31;4776515;30;20586;-67
2023/12/18 02:02:35;;;;;;;15.90;8.32;;;;;;;6.94;100.00;103137.56;4787955;30;20063;-67
2023/12/18 02:05:23;;;;;;;14.55;7.85;;;;;;;6.94;100.00;103146.53;4788882;30;20051;-67
2023/12/18 02:08:11;;;;;;;17.55;8.13;;;;;;;6.93;100.00;103142.16;4773637;30;20047;-68
2023/12/18 02:11:03;;;;;;;17.63;8.52;;;;;;;6.90;100.00;103134.38;4775067;30;20047;-69
2023/12/18 02:13:51;;;;;;;16.05;8.43;;;;;;;6.90;100.00;103128.13;4787930;29;20528;-68
2023/12/18 02:16:38;;;;;;;17.50;8.45;;;;;;;6.89;100.00;103131.88;4787340;30;20412;-68
2023/12/18 02:19:30;;;;;;;14.45;8.02;;;;;;;6.91;100.00;103127.09;4762347;30;20412;-68
2023/12/18 02:22:19;;;;;;;14.20;8.27;;;;;;;6.92;100.00;103128.78;4788737;29;20055;-67
2023/12/18 02:25:07;;;;;;;19.38;9.27;;;;;;;6.92;100.00;103123.34;4773036;30;20078;-68
2023/12/18 02:27:55;;;;;;;14.60;8.48;;;;;;;6.93;100.00;103114.22;4788102;30;20070;-66
2023/12/18 02:30:43;;;;;;;17.33;8.02;;;;;;;6.92;100.00;103116.06;4787554;30;20133;-69
2023/12/18 02:33:32;;;;;;;15.50;8.13;;;;;;;6.94;100.00;103115.88;4771144;30;20047;-67
2023/12/18 02:36:20;;;;;;;15.30;7.95;;;;;;;6.95;100.00;103112.13;4789688;29;20051;-68
2023/12/18 02:39:08;;;;;;;13.52;7.55;;;;;;;6.93;100.00;103116.94;4787630;30;20054;-68
2023/12/18 02:41:56;;;;;;;15.80;8.77;;;;;;;6.93;100.00;103112.34;4787555;29;20058;-69
2023/12/18 02:44:44;;;;;;;17.73;8.95;;;;;;;6.96;100.00;103113.84;4774858;30;20158;-67
2023/12/18 02:47:32;;;;;;;21.38;9.43;;;;;;;6.96;100.00;103100.28;4763632;30;20043;-68
2023/12/18 02:50:20;;;;;;;16.30;8.23;;;;;;;6.93;100.00;103098.78;4790505;29;20055;-67
2023/12/18 02:53:08;;;;;;;16.92;8.20;;;;;;;6.93;100.00;103103.38;4773008;30;20054;-67
2023/12/18 02:55:56;;;;;;;17.63;8.23;;;;;;;6.93;100.00;103098.78;4790287;30;20087;-68
2023/12/18 02:58:44;;;;;;;17.15;8.98;;;;;;;6.95;100.00;103096.75;4787361;30;20104;-68
2023/12/18 03:01:31;;;;;;;16.05;8.63;;;;;;;6.93;100.00;103106.09;4775906;30;20048;-68
2023/12/18 03:04:20;;;;;;;17.40;7.93;;;;;;;6.93;100.00;103100.66;4789936;29;20593;-66
2023/12/18 03:07:09;;;;;;;16.40;8.07;;;;;;;6.94;100.00;103089.63;4788410;30;20409;-67
2023/12/18 03:09:56;;;;;;;18.75;10.20;;;;;;;6.96;100.00;103097.56;4791151;29;20124;-68
2023/12/18 03:12:44;;;;;;;18.95;8.27;;;;;;;6.96;100.00;103095.69;4789050;30;20054;-68
2023/12/18 03:15:33;;;;;;;14.13;8.00;;;;;;;6.94;100.00;103099.63;4791027;29;20144;-67
2023/12/18 03:18:21;;;;;;;12.43;7.47;;;;;;;6.94;100.00;103088.78;4772047;30;20078;-67
2023/12/18 03:21:11;;;;;;;17.15;8.05;;;;;;;6.95;100.00;103094.03;4776776;30;20051;-67
2023/12/18 03:23:59;;;;;;;19.17;8.57;;;;;;;6.92;100.00;103094.38;4789525;30;20051;-68
2023/12/18 03:26:47;;;;;;;17.08;7.95;;;;;;;6.96;100.00;103092.16;4797603;29;20480;-68
2023/12/18 03:29:34;;;;;;;13.50;7.68;;;;;;;6.90;100.00;103098.31;4776465;30;20048;-68
2023/12/18 03:32:22;;;;;;;16.10;7.72;;;;;;;6.90;100.00;103096.44;4777564;30;20051;-67
2023/12/18 03:35:10;;;;;;;12.77;7.47;;;;;;;6.92;100.00;103090.84;4790133;29;20422;-69
2023/12/18 03:37:58;;;;;;;15.00;7.10;;;;;;;6.91;100.00;103083.75;4789230;30;20581;-68
2023/12/18 03:40:46;;;;;;;15.35;8.38;;;;;;;6.92;100.00;103085.41;4775467;30;20153;-69
2023/12/18 03:43:34;;;;;;;13.88;8.15;;;;;;;6.89;100.00;103081.22;4780901;30;20181;-69
2023/12/18 03:46:23;;;;;;;13.15;7.18;;;;;;;6.91;100.00;103081.03;4776692;30;20051;-71
2023/12/18 03:49:11;;;;;;;14.75;8.50;;;;;;;6.88;100.00;103092.22;4776741;30;20055;-66
2023/12/18 03:52:00;;;;;;;16.58;8.93;;;;;;;6.90;100.00;103099.13;4763646;30;20043;-68
2023/12/18 03:54:47;;;;;;;14.32;7.90;;;;;;;6.86;100.00;103103.28;4786865;30;20485;-67
2023/12/18 03:57:35;;;;;;;17.02;8.68;;;;;;;6.87;100.00;103110.38;4786185;29;20582;-68
2023/12/18 04:00:23;;;;;;;16.20;8.73;;;;;;;6.87;100.00;103093.28;4776130;30;20051;-67
2023/12/18 04:03:11;;;;;;;16.90;8.73;;;;;;;6.89;100.00;103092.06;4788846;29;20051;-67
2023/12/18 04:05:59;;;;;;;18.92;9.25;;;;;;;6.87;100.00;103094.09;4786128;30;20051;-66
2023/12/18 04:08:47;;;;;;;16.17;9.50;;;;;;;6.88;100.00;103092.22;4788374;30;20488;-67
2023/12/18 04:11:35;;;;;;;13.05;8.05;;;;;;;6.90;100.00;103092.88;4789637;29;20138;-67
2023/12/18 04:14:23;;;;;;;16.58;8.75;;;;;;;6.88;100.00;103082.25;4763817;30;20066;-69
2023/12/18 04:17:11;;;;;;;14.20;8.60;;;;;;;6.87;100.00;103082.44;4789863;29;20537;-67
2023/12/18 04:19:59;;;;;;;15.73;8.50;;;;;;;6.88;100.00;103089.53;4789445;30;20513;-68
2023/12/18 04:22:47;;;;;;;16.90;8.93;;;;;;;6.85;100.00;103085.31;4777157;30;20359;-68
2023/12/18 04:25:35;;;;;;;16.08;8.57;;;;;;;6.86;100.00;103087.03;4791920;29;20599;-68
2023/12/18 04:28:23;;;;;;;18.05;9.40;;;;;;;6.87;100.00;103082.44;4789597;30;20059;-67
2023/12/18 04:31:11;;;;;;;14.35;8.27;;;;;;;6.88;100.00;103075.97;4785665;30;20144;-68
2023/12/18 04:33:59;;;;;;;20.08;9.68;;;;;;;6.90;100.00;103077.47;4794003;30;20466;-67
2023/12/18 04:36:47;;;;;;;16.60;9.50;;;;;;;6.91;100.00;103081.03;4795183;29;20062;-68
2023/12/18 04:39:35;;;;;;;17.85;9.68;;;;;;;6.89;100.00;103075.78;4800680;29;20073;-66
2023/12/18 04:42:23;;;;;;;19.52;10.18;;;;;;;6.89;100.00;103083.09;4801681;29;20077;-60
2023/12/18 04:45:11;;;;;;;15.80;9.85;;;;;;;6.86;100.00;103080.75;4805793;30;20050;-66
2023/12/18 04:47:59;;;;;;;17.35;8.93;;;;;;;6.88;100.00;103070.56;4785906;30;20112;-66
2023/12/18 04:50:47;;;;;;;15.80;9.00;;;;;;;6.91;100.00;103083.75;4775016;30;20051;-68
2023/12/18 04:53:36;;;;;;;19.30;9.98;;;;;;;6.92;100.00;103078.13;4774485;30;20051;-67
2023/12/18 04:56:24;;;;;;;17.80;9.93;;;;;;;6.91;100.00;103070.19;4763393;30;20168;-67
2023/12/18 04:59:13;;;;;;;18.92;10.23;;;;;;;6.94;100.00;103070.66;4787374;30;20054;-67
2023/12/18 05:02:01;;;;;;;19.13;8.95;;;;;;;6.91;100.00;103073.75;4781648;30;20055;-67
2023/12/18 05:04:49;;;;;;;20.80;10.20;;;;;;;6.91;100.00;103067.50;4787236;30;20059;-67
2023/12/18 05:07:37;;;;;;;18.30;9.00;;;;;;;6.94;100.00;103073.34;4774851;30;20155;-66
2023/12/18 05:10:25;;;;;;;19.65;10.57;;;;;;;6.92;100.00;103070.00;4786813;29;20059;-66
2023/12/18 05:13:13;;;;;;;22.95;11.40;;;;;;;6.91;100.00;103081.03;4782672;30;20052;-67
2023/12/18 05:16:02;;;;;;;20.52;10.80;;;;;;;6.91;100.00;103075.63;4757869;30;20055;-67
2023/12/18 05:18:50;;;;;;;19.92;9.63;;;;;;;6.91;100.00;103070.19;4747846;30;20438;-68
2023/12/18 05:21:38;;;;;;;19.17;9.77;;;;;;;6.92;100.00;103063.75;4786984;30;20058;-67
2023/12/18 05:24:26;;;;;;;17.42;9.38;;;;;;;6.91;100.00;103064.78;4786426;30;20051;-67
2023/12/18 05:27:16;;;;;;;18.23;9.57;;;;;;;6.91;100.00;103072.91;4789186;29;20127;-66
2023/12/18 05:30:04;;;;;;;20.48;10.55;;;;;;;6.89;100.00;103070.38;4778628;30;20059;-66
2023/12/18 05:32:52;;;;;;;18.30;10.63;;;;;;;6.90;100.00;103069.34;4774700;30;20062;-66
2023/12/18 05:35:41;;;;;;;16.27;9.85;;;;;;;6.90;100.00;103072.03;4774733;30;20047;-67
2023/12/18 05:38:28;;;;;;;21.73;10.88;;;;;;;6.90;100.00;103072.03;4787309;29;20432;-68
2023/12/18 05:41:16;;;;;;;19.50;9.55;;;;;;;6.93;100.00;103070.84;4774203;30;20143;-66
2023/12/18 05:44:04;;;;;;;20.73;11.35;;;;;;;6.92;100.00;103080.00;4774990;30;20134;-66
2023/12/18 05:46:53;;;;;;;18.83;9.68;;;;;;;6.93;100.00;103070.84;4775176;30;20054;-66
2023/12/18 05:49:40;;;;;;;14.18;9.02;;;;;;;6.93;100.00;103073.56;4787565;29;20058;-67
2023/12/18 05:52:29;;;;;;;15.77;9.50;;;;;;;6.95;100.00;103075.06;4764124;29;20101;-67
2023/12/18 05:55:17;;;;;;;15.77;8.63;;;;;;;6.95;100.00;103071.47;4762685;30;20497;-68
2023/12/18 05:58:05;;;;;;;15.30;9.60;;;;;;;6.97;100.00;103074.84;4787804;30;20047;-68
2023/12/18 06:00:53;;;;;;;20.08;9.95;;;;;;;6.95;100.00;103074.19;4787524;29;20051;-68
2023/12/18 06:03:41;;;;;;;17.95;8.98;;;;;;;6.91;100.00;103064.78;4787063;30;20046;-69
2023/12/18 06:06:29;;;;;;;16.50;9.10;;;;;;;6.93;100.00;103066.28;4774858;30;20131;-67
2023/12/18 06:09:17;;;;;;;14.30;8.90;;;;;;;6.99;100.00;103059.25;4789075;29;20055;-67
2023/12/18 06:12:06;;;;;;;15.23;8.48;;;;;;;6.95;100.00;103063.34;4789051;29;20181;-67
2023/12/18 06:14:54;;;;;;;16.48;8.65;;;;;;;6.97;100.00;103062.13;4787425;29;20116;-67
2023/12/18 06:17:42;;;;;;;17.55;9.27;;;;;;;6.94;100.00;103067.09;4773840;30;20588;-68
2023/12/18 06:20:30;;;;;;;19.70;11.30;;;;;;;6.92;100.00;103067.28;4786776;29;20094;-68
2023/12/18 06:23:18;;;;;;;20.38;10.27;;;;;;;6.90;100.00;103072.03;4777096;30;20104;-66
2023/12/18 06:26:06;;;;;;;21.08;10.65;;;;;;;6.93;100.00;103074.41;4787871;30;20146;-67
2023/12/18 06:28:54;;;;;;;18.70;10.07;;;;;;;6.92;100.00;103070.00;4790618;30;20078;-67
2023/12/18 06:31:42;;;;;;;18.35;9.05;;;;;;;6.92;100.00;103080.00;4789640;30;20051;-67
2023/12/18 06:34:30;;;;;;;20.20;10.95;;;;;;;6.91;100.00;103076.44;4789051;30;20055;-68
2023/12/18 06:37:18;;;;;;;19.40;10.13;;;;;;;6.90;100.00;103066.63;4771287;30;20051;-67
2023/12/18 06:40:07;;;;;;;19.98;10.05;;;;;;;6.92;100.00;103070.00;4787701;30;20118;-67
2023/12/18 06:42:54;;;;;;;20.52;11.70;;;;;;;6.93;100.00;103073.56;4790522;29;20565;-66
2023/12/18 06:45:43;;;;;;;20.17;9.98;;;;;;;6.93;100.00;103068.97;4773882;30;20043;-66
2023/12/18 06:48:31;;;;;;;22.42;11.60;;;;;;;6.92;100.00;103064.56;4790022;30;20055;-66
2023/12/18 06:51:20;;;;;;;15.25;9.20;;;;;;;6.93;100.00;103068.16;4776118;30;20086;-68
2023/12/18 06:54:08;;;;;;;20.02;10.30;;;;;;;6.92;100.00;103066.44;4789742;30;20134;-67
2023/12/18 06:56:56;;;;;;;16.48;9.15;;;;;;;6.93;100.00;103068.97;4788570;30;20158;-66
2023/12/18 06:59:44;;;;;;;22.00;12.30;;;;;;;6.92;100.00;103074.56;4790600;29;20047;-67
2023/12/18 07:02:32;;;;;;;22.93;12.13;;;;;;;6.91;100.00;103073.75;4753961;29;20082;-68
2023/12/18 07:05:21;;;;;;;22.10;12.48;;;;;;;6.90;100.00;103073.91;4776185;30;20047;-68
2023/12/18 07:08:09;;;;;;;24.65;12.88;;;;;;;6.90;100.00;103082.03;4794458;30;20184;-67
2023/12/18 07:10:57;;;;;;;24.15;12.10;;;;;;;6.88;100.00;103073.25;4788905;30;20137;-68
2023/12/18 07:13:45;;;;;;;24.15;12.40;;;;;;;6.87;100.00;103071.59;4763691;30;20059;-68
2023/12/18 07:16:33;;;;;;;26.40;13.63;;;;;;;6.83;100.00;103077.41;4786472;30;20581;-67
2023/12/18 07:19:23;;;;;;;23.17;12.70;;;;;;;6.83;100.00;103077.41;4789507;29;20091;-68
2023/12/18 07:22:11;;;;;;;20.55;11.45;;;;;;;6.81;100.00;103075.91;4776392;30;20055;-67
2023/12/18 07:24:59;;;;;;;22.70;12.23;;;;;;;6.82;100.00;103081.13;4777242;30;20049;-68
2023/12/18 07:27:47;;;;;;;22.15;11.48;;;;;;;6.85;100.00;103079.06;4094448;30;10000994;-68
2023/12/18 07:30:36;;;;;;;17.45;9.98;;;;;;;6.90;100.00;103076.63;4786211;29;20139;-68
2023/12/18 07:33:27;;;;;;;19.13;11.57;;;;;;;6.91;100.00;103067.50;4766591;30;20140;-70
2023/12/18 07:36:15;;;;;;;20.05;10.70;;;;;;;6.93;100.00;103076.28;4755141;30;20054;-68
2023/12/18 07:39:03;;;;;;;18.73;10.32;;;;;;;6.92;100.00;103074.56;4771944;30;20154;-69
2023/12/18 07:41:51;;;;;;;19.77;10.50;;;;;;;6.94;100.00;103081.50;4772313;30;20425;-70
2023/12/18 07:44:39;;;;;;;14.77;6.93;;;;;;;7.04;100.00;103075.78;4787928;30;20451;-69
2023/12/18 07:47:27;;;;;;;22.35;11.18;;;;;;;7.00;100.00;103074.50;4792982;29;20056;-69
2023/12/18 07:50:16;;;;;;;19.42;8.40;;;;;;;7.11;100.00;103076.69;4757954;30;20051;-69
2023/12/18 07:53:04;;;;;;;15.27;8.80;;;;;;;7.23;100.00;103077.88;4784602;30;20192;-68
2023/12/18 07:55:52;;;;;;;16.05;7.85;;;;;;;7.28;100.00;103071.06;4760395;30;20070;-68
2023/12/18 07:58:41;;;;;;;21.73;10.80;;;;;;;7.21;100.00;103062.84;4781820;30;20047;-67
2023/12/18 08:01:29;;;;;;;20.80;10.25;;;;;;;7.26;100.00;103063.13;4785184;30;20138;-68
2023/12/18 08:04:17;;;;;;;17.17;9.48;;;;;;;7.25;100.00;103070.41;4772191;30;20059;-68
2023/12/18 08:07:05;;;;;;;17.63;8.23;;;;;;;7.32;100.00;103065.06;4784356;30;20118;-69
2023/12/18 08:09:53;;;;;;;17.65;10.35;;;;;;;7.20;100.00;103059.31;4784005;30;20054;-69
2023/12/18 08:12:42;;;;;;;16.38;8.15;;;;;;;7.23;100.00;103066.22;4771803;30;20043;-68
2023/12/18 08:15:30;;;;;;;17.58;8.75;;;;;;;7.13;100.00;103060.25;4777534;30;20055;-70
2023/12/18 08:18:18;;;;;;;18.17;9.27;;;;;;;7.16;100.00;103054.44;4786038;29;20059;-70
2023/12/18 08:21:13;;;;;;;16.58;8.60;;;;;;;7.28;100.00;103057.50;4773916;30;20142;-69
2023/12/18 08:24:01;;;;;;;23.95;11.45;;;;;;;7.21;100.00;103052.84;4768481;30;20592;-68
2023/12/18 08:26:49;;;;;;;23.45;12.70;;;;;;;7.20;100.00;103056.59;4770733;30;20489;-69
2023/12/18 08:29:39;;;;;;;22.52;11.18;;;;;;;7.16;100.00;103054.44;4785032;29;20063;-69
2023/12/18 08:32:27;;;;;;;19.77;11.00;;;;;;;7.14;100.00;103051.91;4784516;30;20051;-69
2023/12/18 08:35:15;;;;;;;21.80;9.93;;;;;;;7.13;100.00;103058.38;4783805;30;20077;-68
2023/12/18 08:38:03;;;;;;;17.58;9.18;;;;;;;7.19;100.00;103054.06;4771239;30;20577;-68
2023/12/18 08:40:51;;;;;;;18.95;10.30;;;;;;;7.16;100.00;103055.28;4778256;30;20063;-68
2023/12/18 08:43:43;;;;;;;24.00;11.73;;;;;;;7.24;100.00;103044.34;4771959;29;20051;-69
2023/12/18 08:46:36;;;;;;;24.52;14.05;;;;;;;7.06;100.00;103046.63;4787406;30;20405;-67
2023/12/18 08:49:24;;;;;;;28.92;15.93;;;;;;;6.99;100.00;103034.84;4761537;30;20071;-69
2023/12/18 08:52:12;;;;;;;29.60;14.90;;;;;;;6.92;100.00;103037.47;4776285;30;20059;-68
2023/12/18 08:55:00;;;;;;;26.52;15.52;;;;;;;6.88;100.00;103041.59;4785316;30;20084;-66
2023/12/18 08:57:48;;;;;;;28.42;13.68;;;;;;;6.96;100.00;103046.06;4802652;30;20100;-65
2023/12/18 09:00:36;;;;;;;22.75;11.00;;;;;;;7.02;100.00;103039.88;4764029;30;20056;-66
2023/12/18 09:03:24;;;;;;;29.10;12.95;;;;;;;7.14;100.00;103040.25;4765186;30;20058;-68
2023/12/18 09:06:12;;;;;;;25.30;11.75;;;;;;;7.17;100.00;103040.72;4786909;30;20061;-67
2023/12/18 09:09:01;;;;;;;25.10;12.02;;;;;;;7.35;100.00;103031.31;4793556;30;20074;-70
2023/12/18 09:11:49;;;;;;;28.45;12.65;;;;;;;7.30;100.00;103033.75;4789629;29;20417;-68
2023/12/18 09:14:37;;;;;;;21.60;11.55;;;;;;;7.21;100.00;103042.00;4787378;30;20453;-69
2023/12/18 09:17:26;;;;;;;23.85;11.95;;;;;;;7.19;100.00;103038.66;4787906;30;20051;-69
2023/12/18 09:20:14;;;;;;;26.70;13.25;;;;;;;7.20;100.00;103040.31;4769841;30;20056;-68
2023/12/18 09:23:05;;;;;;;24.98;10.25;;;;;;;7.36;100.00;103033.84;4770101;30;20150;-68
2023/12/18 09:25:53;;;;;;;23.88;12.88;;;;;;;7.36;100.00;103038.41;4769183;30;20466;-68
2023/12/18 09:28:42;;;;;;;23.15;10.98;;;;;;;7.33;100.00;103033.38;4780532;30;20058;-67
2023/12/18 09:31:31;;;;;;;22.00;11.02;;;;;;;7.34;100.00;103037.78;4786856;29;20059;-68
2023/12/18 09:34:19;;;;;;;22.73;10.85;;;;;;;7.37;100.00;103035.50;4787915;29;20171;-69
2023/12/18 09:37:07;;;;;;;26.23;13.85;;;;;;;7.29;100.00;103042.91;4786794;30;20051;-68
2023/12/18 09:39:55;;;;;;;24.70;13.25;;;;;;;7.29;100.00;103048.31;4787908;29;20055;-68
2023/12/18 09:42:52;;;;;;;19.40;11.48;;;;;;;7.23;100.00;103048.06;4787509;30;20505;-68
2023/12/18 09:45:41;;;;;;;24.70;11.85;;;;;;;7.22;100.00;103048.28;4775020;29;20599;-67
2023/12/18 09:48:29;;;;;;;24.85;13.30;;;;;;;7.22;100.00;103049.09;4773895;30;20051;-67
2023/12/18 09:51:20;;;;;;;26.38;13.50;;;;;;;7.20;100.00;103045.75;4787257;30;20051;-68
2023/12/18 09:54:09;;;;;;;20.08;12.07;;;;;;;7.21;100.00;103052.00;4763162;30;20052;-68
2023/12/18 09:56:57;;;;;;;25.92;11.05;;;;;;;7.29;100.00;103038.34;4764899;30;20059;-67
2023/12/18 09:59:46;;;;;;;21.35;12.13;;;;;;;7.35;100.00;103043.00;4761037;30;20265;-68
2023/12/18 10:02:34;;;;;;;20.00;9.77;;;;;;;7.47;100.00;103041.44;4772714;30;20421;-68
2023/12/18 10:05:22;;;;;;;20.10;7.93;;;;;;;7.52;100.00;103026.47;4759946;30;20399;-68
2023/12/18 10:08:10;;;;;;;21.80;11.60;;;;;;;7.45;100.00;103029.13;4786087;30;20413;-68
2023/12/18 10:10:58;;;;;;;19.80;9.90;;;;;;;7.44;100.00;103020.16;4790957;30;20055;-68
2023/12/18 10:13:50;;;;;;;23.73;12.48;;;;;;;7.36;100.00;103016.69;4765388;30;20122;-70
2023/12/18 10:16:39;;;;;;;16.95;7.45;;;;;;;7.52;100.00;103019.16;4778564;30;20055;-70
2023/12/18 10:19:28;;;;;;;25.60;10.70;;;;;;;7.55;100.00;103010.66;4790026;30;20055;-67
2023/12/18 10:22:17;;;;;;;20.83;11.23;;;;;;;7.58;100.00;103004.84;4792962;29;20084;-69
2023/12/18 10:25:05;;;;;;;17.40;10.20;;;;;;;7.62;100.00;103008.81;4789703;30;20102;-69
2023/12/18 10:27:57;;;;;;;21.75;11.95;;;;;;;7.52;100.00;103010.19;4783473;30;20119;-68
2023/12/18 10:30:46;;;;;;;21.83;12.85;;;;;;;7.49;100.00;103006.00;4765867;30;20155;-69
2023/12/18 10:33:34;;;;;;;22.60;13.38;;;;;;;7.36;100.00;103014.84;4777064;30;20389;-68
2023/12/18 10:36:24;;;;;;;20.90;11.45;;;;;;;7.32;100.00;103015.44;4777076;30;20143;-68
2023/12/18 10:39:15;;;;;;;19.13;10.25;;;;;;;7.37;100.00;103007.56;4776544;30;20062;-68
2023/12/18 10:42:08;;;;;;;24.58;11.23;;;;;;;7.34;100.00;102999.81;4776979;30;20073;-68
2023/12/18 10:44:58;;;;;;;25.10;12.27;;;;;;;7.33;100.00;102996.22;4777457;30;20055;-68
2023/12/18 10:47:48;;;;;;;14.90;8.45;;;;;;;7.46;100.00;102990.13;4776856;29;20051;-67
2023/12/18 10:50:36;;;;;;;25.88;13.32;;;;;;;7.67;100.00;102986.53;4758679;30;20052;-70
2023/12/18 10:53:25;;;;;;;24.35;14.52;;;;;;;7.36;100.00;102985.03;4786807;30;20591;-68
2023/12/18 10:56:16;;;;;;;28.50;13.85;;;;;;;7.23;100.00;102974.03;4763806;30;20050;-68
2023/12/18 10:59:06;;;;;;;26.10;13.95;;;;;;;7.18;100.00;102973.75;4776422;30;20044;-69
2023/12/18 11:01:55;;;;;;;22.25;14.43;;;;;;;7.17;100.00;102969.41;4785194;30;20127;-68
2023/12/18 11:04:46;;;;;;;25.80;14.18;;;;;;;7.16;100.00;102971.25;4776949;30;20053;-69
2023/12/18 11:07:35;;;;;;;28.45;14.23;;;;;;;7.16;100.00;102963.09;4762319;30;20112;-68
2023/12/18 11:10:24;;;;;;;26.17;15.02;;;;;;;7.18;100.00;102968.34;4789312;30;20079;-69
2023/12/18 11:13:29;;;;;;;17.55;8.48;;;;;;;7.34;100.00;102964.56;4776178;30;20082;-68
2023/12/18 11:16:35;;;;;;;23.25;12.77;;;;;;;7.37;100.00;102958.75;4764232;30;20062;-69
2023/12/18 11:19:56;;;;;;;16.88;8.88;;;;;;;7.48;100.00;102952.81;4760624;30;20153;-67
2023/12/18 11:22:46;;;;;;;18.63;9.88;;;;;;;7.55;100.00;102940.13;4775908;30;20051;-68
2023/12/18 11:25:48;;;;;;;19.33;10.75;;;;;;;7.52;100.00;102951.34;4122823;30;10000781;-69
2023/12/18 11:28:41;;;;;;;20.63;10.55;;;;;;;7.66;100.00;102955.03;4773708;30;20503;-70
2023/12/18 11:31:30;;;;;;;22.60;11.82;;;;;;;7.67;100.00;102953.97;4777686;29;20514;-70
2023/12/18 11:34:19;;;;;;;17.90;8.98;;;;;;;7.66;100.00;102945.00;4773339;30;20059;-69
2023/12/18 11:37:08;;;;;;;21.75;12.02;;;;;;;7.61;100.00;102943.94;4769668;30;20134;-69
2023/12/18 11:39:57;;;;;;;13.65;8.65;;;;;;;7.55;100.00;102947.41;4761062;30;20130;-69
2023/12/18 11:42:46;;;;;;;15.55;8.50;;;;;;;7.63;100.00;102947.28;4771731;30;20081;-68
2023/12/18 11:45:40;;;;;;;15.50;7.95;;;;;;;7.65;100.00;102940.63;4744348;30;20059;-71
2023/12/18 11:48:28;;;;;;;19.02;11.60;;;;;;;7.66;100.00;102945.00;4781923;30;20081;-71
2023/12/18 11:51:18;;;;;;;13.55;7.00;;;;;;;7.64;100.00;102932.69;4784974;30;20055;-69
2023/12/18 11:54:06;;;;;;;15.07;8.20;;;;;;;7.72;100.00;102926.25;4786254;29;20539;-70
2023/12/18 11:56:55;;;;;;;21.15;11.82;;;;;;;7.60;100.00;102918.69;4766615;30;20492;-70
2023/12/18 11:59:44;;;;;;;17.40;10.00;;;;;;;7.56;100.00;102914.69;4782917;30;20143;-71
2023/12/18 12:02:32;;;;;;;20.33;12.30;;;;;;;7.61;100.00;102909.50;4782191;29;20063;-70
2023/12/18 12:05:22;;;;;;;20.17;11.82;;;;;;;7.54;100.00;102914.03;4758579;30;20292;-70
2023/12/18 12:08:10;;;;;;;21.55;10.23;;;;;;;7.55;100.00;102912.16;4786442;30;20055;-68
2023/12/18 12:10:58;;;;;;;16.38;9.65;;;;;;;7.51;100.00;102911.72;4754182;30;20568;-67
2023/12/18 12:13:48;;;;;;;16.25;8.80;;;;;;;7.57;100.00;102905.50;4784748;30;20059;-69
2023/12/18 12:16:36;;;;;;;19.40;11.95;;;;;;;7.40;100.00;102912.22;4785357;30;20055;-69
2023/12/18 12:19:35;;;;;;;23.92;11.93;;;;;;;7.30;100.00;102906.31;4787308;29;20062;-68
2023/12/18 12:22:23;;;;;;;20.75;12.95;;;;;;;7.24;100.00;102921.50;4774684;30;20196;-68
2023/12/18 12:25:11;;;;;;;22.92;12.27;;;;;;;7.23;100.00;102923.34;4788115;30;20047;-68
2023/12/18 12:27:59;;;;;;;23.73;12.18;;;;;;;7.24;100.00;102902.53;4785034;30;20055;-69
2023/12/18 12:30:48;;;;;;;23.33;11.82;;;;;;;7.25;100.00;102896.88;4785956;30;20189;-70
2023/12/18 12:33:42;;;;;;;21.98;11.63;;;;;;;7.28;100.00;102886.69;4786954;30;20055;-69
2023/12/18 12:36:31;;;;;;;20.65;11.73;;;;;;;7.28;100.00;102889.41;4774638;30;20052;-68
2023/12/18 12:39:23;;;;;;;22.90;12.18;;;;;;;7.26;100.00;102892.28;4785279;29;20586;-69
2023/12/18 12:42:12;;;;;;;16.17;9.05;;;;;;;7.30;100.00;102890.88;4781177;30;20082;-69
2023/12/18 12:45:00;;;;;;;19.90;10.65;;;;;;;7.34;100.00;102900.31;4787711;30;20129;-68
2023/12/18 12:47:48;;;;;;;15.18;7.32;;;;;;;7.54;100.00;102905.06;4787838;30;20051;-67
2023/12/18 12:50:42;;;;;;;16.50;10.05;;;;;;;7.44;100.00;102894.53;4785167;29;20063;-68
2023/12/18 12:53:32;;;;;;;20.95;10.43;;;;;;;7.38;100.00;102889.88;4775899;30;20078;-71